Time;durP1;ratioP1;P1;durP2;ratioP2;P2;SDS_P1;SDS_P2;PMS_P1;PMS_P2;Temp;Humidity;BMP_temperature;BMP_pressure;BME280_temperature;BME280_humidity;BME280_pressure;Samples;Min_cycle;Max_cycle;Signal;HPM_P1;HPM_P2
2023/11/04 00:00:40;;;;;;;4.80;2.28;;;5.90;99.90;;;;;;5001690;28;20032;-75
2023/11/04 00:03:06;;;;;;;3.63;1.92;;;5.80;99.90;;;;;;5000944;28;20056;-76
2023/11/04 00:05:31;;;;;;;5.05;2.20;;;5.80;99.90;;;;;;4996394;28;20030;-77
2023/11/04 00:07:57;;;;;;;4.18;1.92;;;5.50;99.90;;;;;;5006529;28;20034;-76
2023/11/04 00:10:23;;;;;;;4.45;2.25;;;5.30;99.90;;;;;;5003023;28;20034;-76
2023/11/04 00:12:49;;;;;;;7.05;2.03;;;5.20;99.90;;;;;;5004295;28;20476;-78
2023/11/04 00:15:15;;;;;;;4.15;1.80;;;5.30;99.90;;;;;;4991328;28;20034;-76
2023/11/04 00:17:41;;;;;;;3.17;2.00;;;5.10;99.90;;;;;;5000213;28;20076;-77
2023/11/04 00:20:07;;;;;;;3.65;1.90;;;5.00;99.90;;;;;;5010819;28;20041;-77
2023/11/04 00:22:34;;;;;;;4.00;1.77;;;5.00;99.90;;;;;;5010601;28;20134;-76
2023/11/04 00:25:00;;;;;;;6.90;2.00;;;4.90;99.90;;;;;;4993343;28;20034;-76
2023/11/04 00:27:26;;;;;;;3.40;1.65;;;4.90;99.90;;;;;;5002886;28;20026;-76
2023/11/04 00:29:51;;;;;;;3.88;1.88;;;5.00;99.90;;;;;;5010213;28;20041;-76
2023/11/04 00:32:17;;;;;;;3.50;2.00;;;4.90;99.90;;;;;;5010190;28;20555;-76
2023/11/04 00:34:43;;;;;;;2.72;1.45;;;4.80;99.90;;;;;;4994582;28;20494;-76
2023/11/04 00:37:12;;;;;;;3.42;2.00;;;4.80;99.90;;;;;;4990621;28;20030;-76
2023/11/04 00:39:38;;;;;;;3.80;1.88;;;4.90;99.90;;;;;;4991986;28;20042;-76
2023/11/04 00:42:04;;;;;;;3.67;1.98;;;5.10;99.90;;;;;;4997300;28;20072;-76
2023/11/04 00:44:30;;;;;;;3.35;1.98;;;5.20;99.90;;;;;;5002864;28;20038;-76
2023/11/04 00:46:56;;;;;;;5.60;2.28;;;5.40;99.90;;;;;;4998409;28;20041;-76
2023/11/04 00:49:21;;;;;;;4.40;2.72;;;5.50;99.90;;;;;;5001566;28;20046;-76
2023/11/04 00:51:47;;;;;;;4.72;1.80;;;5.50;99.90;;;;;;5009705;28;20034;-76
2023/11/04 00:54:13;;;;;;;5.60;2.78;;;5.50;99.90;;;;;;4997725;28;20057;-76
2023/11/04 00:56:38;;;;;;;4.38;1.95;;;5.60;99.90;;;;;;5003489;28;20111;-76
2023/11/04 00:59:04;;;;;;;5.43;1.88;;;5.40;99.90;;;;;;5007117;28;20045;-76
2023/11/04 01:01:30;;;;;;;5.03;2.25;;;5.60;99.90;;;;;;5004099;28;20041;-76
2023/11/04 01:03:55;;;;;;;4.97;2.10;;;5.60;99.90;;;;;;5006865;28;20022;-76
2023/11/04 01:06:21;;;;;;;3.67;1.85;;;5.70;99.90;;;;;;4995221;28;20030;-76
2023/11/04 01:08:47;;;;;;;4.55;2.35;;;5.50;99.90;;;;;;5008004;28;20042;-75
2023/11/04 01:11:13;;;;;;;4.25;2.13;;;5.30;99.90;;;;;;5014131;28;20065;-76
2023/11/04 01:13:39;;;;;;;6.55;2.95;;;5.40;99.90;;;;;;4978421;28;20034;-76
2023/11/04 01:16:06;;;;;;;2.83;1.60;;;5.50;99.90;;;;;;4995191;28;20072;-76
2023/11/04 01:18:31;;;;;;;6.30;2.20;;;5.20;99.90;;;;;;4996232;28;20034;-76
2023/11/04 01:20:57;;;;;;;11.63;6.30;;;5.20;99.90;;;;;;5013302;28;20022;-76
2023/11/04 01:23:23;;;;;;;8.80;5.43;;;5.20;99.90;;;;;;5007496;28;20511;-76
2023/11/04 01:25:49;;;;;;;3.97;2.03;;;5.30;99.90;;;;;;4994755;28;20030;-76
2023/11/04 01:28:14;;;;;;;6.50;2.95;;;5.00;99.90;;;;;;5008910;28;20084;-76
2023/11/04 01:30:40;;;;;;;4.95;3.03;;;5.10;99.90;;;;;;4998714;28;20029;-76
2023/11/04 01:33:06;;;;;;;4.65;2.33;;;5.10;99.90;;;;;;5013549;28;20028;-77
2023/11/04 01:35:33;;;;;;;4.38;1.90;;;5.10;99.90;;;;;;5013791;28;20030;-76
2023/11/04 01:37:58;;;;;;;3.75;2.30;;;5.00;99.90;;;;;;5006738;28;20042;-76
2023/11/04 01:40:24;;;;;;;3.85;2.13;;;4.90;99.90;;;;;;4995464;28;20034;-76
2023/11/04 01:42:50;;;;;;;3.78;1.88;;;5.10;99.90;;;;;;5002072;28;20090;-76
2023/11/04 01:45:16;;;;;;;3.17;1.52;;;4.80;99.90;;;;;;5010447;28;20032;-76
2023/11/04 01:47:41;;;;;;;5.35;1.80;;;4.70;99.90;;;;;;5008847;28;20093;-76
2023/11/04 01:50:08;;;;;;;3.53;1.52;;;4.60;99.90;;;;;;4998814;28;20045;-76
2023/11/04 01:52:39;;;;;;;5.70;2.22;;;4.50;99.90;;;;;;5014288;28;20037;-76
2023/11/04 01:55:08;;;;;;;4.07;1.83;;;4.60;99.90;;;;;;5001189;28;20161;-76
2023/11/04 01:57:34;;;;;;;4.70;2.20;;;4.40;99.90;;;;;;5001808;28;20044;-77
2023/11/04 02:00:02;;;;;;;3.15;1.80;;;4.50;99.90;;;;;;5004962;28;20121;-76
2023/11/04 02:02:28;;;;;;;3.80;2.40;;;4.50;99.90;;;;;;5002151;28;20133;-76
2023/11/04 02:04:55;;;;;;;3.85;2.00;;;4.60;99.90;;;;;;4999962;28;20105;-75
2023/11/04 02:07:25;;;;;;;4.40;2.10;;;4.60;99.90;;;;;;5013634;28;20030;-76
2023/11/04 02:09:51;;;;;;;5.78;1.92;;;4.50;99.90;;;;;;5013361;28;20383;-76
2023/11/04 02:12:17;;;;;;;3.47;1.85;;;4.60;99.90;;;;;;5011112;28;20381;-76
2023/11/04 02:14:52;;;;;;;3.45;1.77;;;4.50;99.90;;;;;;5011946;28;20040;-76
2023/11/04 02:17:19;;;;;;;3.20;1.83;;;4.40;99.90;;;;;;5013241;28;20030;-76
2023/11/04 02:19:45;;;;;;;3.35;1.60;;;4.30;99.90;;;;;;5013973;28;20041;-76
2023/11/04 02:22:11;;;;;;;2.33;1.25;;;4.30;99.90;;;;;;5001021;28;20080;-76
2023/11/04 02:24:37;;;;;;;2.22;1.38;;;4.30;99.90;;;;;;5011344;28;20029;-76
2023/11/04 02:27:03;;;;;;;2.63;1.20;;;4.20;99.90;;;;;;4996818;28;20109;-76
2023/11/04 02:29:29;;;;;;;3.72;2.00;;;4.00;99.90;;;;;;4993789;28;20061;-76
2023/11/04 02:31:55;;;;;;;3.03;1.55;;;4.10;99.90;;;;;;5006708;28;20032;-76
2023/11/04 02:34:20;;;;;;;3.60;1.95;;;4.30;99.90;;;;;;5012632;28;20028;-76
2023/11/04 02:36:46;;;;;;;4.30;1.88;;;4.30;99.90;;;;;;5013240;28;20033;-76
2023/11/04 02:39:11;;;;;;;3.08;1.60;;;4.30;99.90;;;;;;5011150;28;20026;-75
2023/11/04 02:41:37;;;;;;;3.55;1.83;;;4.50;99.90;;;;;;5000210;28;20109;-75
2023/11/04 02:44:04;;;;;;;2.38;1.20;;;4.60;99.90;;;;;;5010227;28;20495;-75
2023/11/04 02:46:30;;;;;;;2.95;1.40;;;4.70;99.90;;;;;;5010328;28;20408;-75
2023/11/04 02:48:55;;;;;;;4.57;1.58;;;4.70;99.90;;;;;;4993175;28;20022;-76
2023/11/04 02:51:21;;;;;;;3.67;1.63;;;4.70;99.90;;;;;;4994155;28;20034;-76
2023/11/04 02:53:47;;;;;;;3.20;1.52;;;4.80;99.90;;;;;;4994571;28;20069;-76
2023/11/04 02:56:15;;;;;;;4.15;1.70;;;4.70;99.90;;;;;;5006200;28;20026;-76
2023/11/04 02:58:41;;;;;;;2.22;1.20;;;4.80;99.90;;;;;;4993122;28;20459;-76
2023/11/04 03:01:07;;;;;;;3.15;1.42;;;4.80;99.90;;;;;;4999074;28;20022;-76
2023/11/04 03:03:32;;;;;;;3.75;1.42;;;4.90;99.90;;;;;;5003478;28;20038;-75
2023/11/04 03:05:59;;;;;;;3.22;1.52;;;4.80;99.90;;;;;;4992993;28;20030;-76
2023/11/04 03:08:26;;;;;;;3.28;1.60;;;4.80;99.90;;;;;;4993092;28;20106;-76
2023/11/04 03:10:52;;;;;;;4.05;1.50;;;4.80;99.90;;;;;;4976351;28;20037;-76
2023/11/04 03:13:19;;;;;;;4.90;1.63;;;4.70;99.90;;;;;;4993134;28;20551;-76
2023/11/04 03:15:45;;;;;;;3.47;1.80;;;4.80;99.90;;;;;;4997428;28;20460;-76
2023/11/04 03:18:10;;;;;;;2.50;1.27;;;4.70;99.90;;;;;;5012647;28;20056;-75
2023/11/04 03:20:36;;;;;;;3.80;1.52;;;4.70;99.90;;;;;;5011018;28;20038;-76
2023/11/04 03:23:02;;;;;;;2.97;1.40;;;4.50;99.90;;;;;;5011577;28;20029;-76
2023/11/04 03:25:27;;;;;;;5.60;1.67;;;4.40;99.90;;;;;;5012485;28;20038;-75
2023/11/04 03:27:53;;;;;;;3.50;1.50;;;4.40;99.90;;;;;;4993649;28;20029;-76
2023/11/04 03:30:19;;;;;;;6.00;1.40;;;4.30;99.90;;;;;;4994150;28;20097;-76
2023/11/04 03:32:44;;;;;;;3.22;1.40;;;4.20;99.90;;;;;;5011209;28;20033;-76
2023/11/04 03:35:10;;;;;;;2.40;1.27;;;4.50;99.90;;;;;;5010262;28;20026;-76
2023/11/04 03:37:36;;;;;;;3.08;1.60;;;4.30;99.90;;;;;;4992406;28;20396;-76
2023/11/04 03:40:02;;;;;;;2.75;1.30;;;4.20;99.90;;;;;;4992882;28;20070;-76
2023/11/04 03:42:27;;;;;;;1.80;1.23;;;4.20;99.90;;;;;;4998511;28;20034;-76
2023/11/04 03:44:53;;;;;;;2.55;1.30;;;4.10;99.90;;;;;;4992544;28;20033;-75
2023/11/04 03:47:19;;;;;;;2.75;1.58;;;3.90;99.90;;;;;;4996564;28;20019;-76
2023/11/04 03:49:45;;;;;;;2.70;1.30;;;4.00;99.90;;;;;;5005529;28;20389;-75
2023/11/04 03:52:10;;;;;;;2.78;1.40;;;3.80;99.90;;;;;;5009423;28;20427;-75
2023/11/04 03:54:36;;;;;;;2.22;1.13;;;3.90;99.90;;;;;;5003991;28;20057;-76
2023/11/04 03:57:02;;;;;;;2.80;1.58;;;3.80;99.90;;;;;;5016036;28;20029;-76
2023/11/04 03:59:27;;;;;;;5.82;1.42;;;3.60;99.90;;;;;;5015227;28;20033;-77
2023/11/04 04:01:53;;;;;;;2.67;1.17;;;3.60;99.90;;;;;;5010323;28;20060;-76
2023/11/04 04:04:19;;;;;;;2.83;1.42;;;3.70;99.90;;;;;;4997744;28;20031;-76
2023/11/04 04:06:44;;;;;;;3.17;1.38;;;3.60;99.90;;;;;;4997261;28;20070;-76
2023/11/04 04:09:10;;;;;;;1.67;0.85;;;3.50;99.90;;;;;;5000299;28;20107;-77
2023/11/04 04:11:36;;;;;;;2.90;1.38;;;3.60;99.90;;;;;;4991840;28;20035;-77
2023/11/04 04:14:01;;;;;;;3.97;1.38;;;3.70;99.90;;;;;;5009789;28;20128;-77
2023/11/04 04:16:27;;;;;;;2.05;1.05;;;3.70;99.90;;;;;;4993953;28;20038;-77
2023/11/04 04:18:53;;;;;;;2.65;1.40;;;3.80;99.90;;;;;;4992857;28;20066;-77
2023/11/04 04:21:19;;;;;;;2.83;1.25;;;3.80;99.90;;;;;;4989082;28;20134;-76
2023/11/04 04:23:46;;;;;;;3.38;1.42;;;3.80;99.90;;;;;;4997681;28;20073;-76
2023/11/04 04:26:20;;;;;;;1.80;1.00;;;3.80;99.90;;;;;;5004270;28;20108;-76
2023/11/04 04:28:45;;;;;;;2.95;1.63;;;3.90;99.90;;;;;;5007522;28;20030;-76
2023/11/04 04:31:12;;;;;;;3.30;1.73;;;3.90;99.90;;;;;;4994718;28;20593;-76
2023/11/04 04:33:38;;;;;;;2.50;1.45;;;3.80;99.90;;;;;;4988808;28;20034;-76
2023/11/04 04:36:04;;;;;;;3.83;1.33;;;3.90;99.90;;;;;;5002321;28;20026;-76
2023/11/04 04:38:30;;;;;;;3.28;1.30;;;3.90;99.90;;;;;;4992188;28;20038;-76
2023/11/04 04:40:55;;;;;;;3.67;1.23;;;4.00;99.90;;;;;;4996602;28;20471;-77
2023/11/04 04:43:21;;;;;;;5.20;1.13;;;3.90;99.90;;;;;;5009893;28;20062;-76
2023/11/04 04:45:47;;;;;;;2.83;1.10;;;3.70;99.90;;;;;;5007249;28;20053;-76
2023/11/04 04:48:12;;;;;;;3.15;0.95;;;3.80;99.90;;;;;;4999183;28;20037;-76
2023/11/04 04:50:38;;;;;;;2.97;1.58;;;4.00;99.90;;;;;;5008769;28;20054;-76
2023/11/04 04:53:04;;;;;;;4.18;1.33;;;4.10;99.90;;;;;;4997982;28;20022;-77
2023/11/04 04:55:29;;;;;;;4.30;1.35;;;4.10;99.90;;;;;;4998301;28;20026;-76
2023/11/04 04:57:55;;;;;;;2.58;1.20;;;4.20;99.90;;;;;;5009398;28;20038;-76
2023/11/04 05:00:22;;;;;;;1.67;0.98;;;4.30;99.90;;;;;;5004857;28;20030;-77
2023/11/04 05:02:48;;;;;;;2.38;1.15;;;4.30;99.90;;;;;;4988544;28;20045;-76
2023/11/04 05:05:15;;;;;;;4.72;1.67;;;4.20;99.90;;;;;;4994835;28;20125;-76
2023/11/04 05:07:40;;;;;;;3.45;1.50;;;4.20;99.90;;;;;;5000062;28;20042;-76
2023/11/04 05:10:06;;;;;;;3.40;1.45;;;4.10;99.90;;;;;;4993682;28;20026;-77
2023/11/04 05:12:32;;;;;;;2.55;1.13;;;3.90;99.90;;;;;;5007720;28;20105;-76
2023/11/04 05:14:57;;;;;;;3.60;1.10;;;3.80;99.90;;;;;;5010545;28;20032;-76
2023/11/04 05:17:23;;;;;;;2.30;1.20;;;3.60;99.90;;;;;;5006019;28;20066;-76
2023/11/04 05:19:50;;;;;;;6.63;2.60;;;3.80;99.90;;;;;;5007214;28;20026;-76
2023/11/04 05:22:15;;;;;;;2.80;1.40;;;4.00;99.90;;;;;;4987686;28;20121;-76
2023/11/04 05:24:42;;;;;;;3.30;1.17;;;4.10;99.90;;;;;;4988147;28;20023;-76
2023/11/04 05:27:08;;;;;;;5.32;1.70;;;3.90;99.90;;;;;;5006503;28;20645;-76
2023/11/04 05:29:34;;;;;;;2.85;1.08;;;4.00;99.90;;;;;;4990453;28;20077;-76
2023/11/04 05:32:00;;;;;;;2.75;1.25;;;4.00;99.90;;;;;;4987206;28;20053;-76
2023/11/04 05:34:26;;;;;;;2.80;1.40;;;4.10;99.90;;;;;;5003756;28;20030;-76
2023/11/04 05:36:52;;;;;;;2.97;1.30;;;4.00;99.90;;;;;;4996747;28;20033;-77
2023/11/04 05:39:18;;;;;;;6.10;2.22;;;3.90;99.90;;;;;;4994063;28;20290;-75
2023/11/04 05:41:44;;;;;;;3.25;1.40;;;3.90;99.90;;;;;;5003270;28;20029;-76
2023/11/04 05:44:09;;;;;;;1.88;1.02;;;4.00;99.90;;;;;;5006395;28;20145;-77
2023/11/04 05:46:35;;;;;;;3.45;1.25;;;3.80;99.90;;;;;;5007135;28;20507;-76
2023/11/04 05:49:01;;;;;;;2.90;1.42;;;3.80;99.90;;;;;;4994354;28;20556;-77
2023/11/04 05:51:26;;;;;;;2.28;1.20;;;3.70;99.90;;;;;;4986807;28;20057;-76
2023/11/04 05:53:52;;;;;;;2.78;1.27;;;3.50;99.90;;;;;;5000483;28;20149;-77
2023/11/04 05:56:19;;;;;;;2.78;1.25;;;3.60;99.90;;;;;;4987261;28;20026;-76
2023/11/04 05:58:47;;;;;;;5.13;1.10;;;3.70;99.90;;;;;;4989490;28;20034;-76
2023/11/04 06:01:13;;;;;;;2.90;1.40;;;3.60;99.90;;;;;;4993807;28;20042;-77
2023/11/04 06:03:39;;;;;;;4.38;1.08;;;3.80;99.90;;;;;;4991961;28;20136;-78
2023/11/04 06:06:05;;;;;;;2.65;1.13;;;3.60;99.90;;;;;;5007221;28;20524;-78
2023/11/04 06:08:33;;;;;;;3.03;0.93;;;3.50;99.90;;;;;;5006254;28;20025;-76
2023/11/04 06:10:59;;;;;;;3.30;1.33;;;3.50;99.90;;;;;;4999532;28;20033;-76
2023/11/04 06:13:25;;;;;;;2.72;0.93;;;3.50;99.90;;;;;;5006879;28;20587;-78
2023/11/04 06:15:50;;;;;;;2.95;1.40;;;3.50;99.90;;;;;;4989009;28;20626;-76
2023/11/04 06:18:16;;;;;;;3.03;1.42;;;3.40;99.90;;;;;;5004877;28;20046;-76
2023/11/04 06:20:42;;;;;;;3.40;1.77;;;3.20;99.90;;;;;;5003608;28;20491;-76
2023/11/04 06:23:07;;;;;;;4.38;1.40;;;3.20;99.90;;;;;;5002874;28;20038;-76
2023/11/04 06:25:33;;;;;;;2.60;1.10;;;3.20;99.90;;;;;;5006042;28;20076;-77
2023/11/04 06:27:59;;;;;;;2.42;1.15;;;3.40;99.90;;;;;;4999819;28;20037;-76
2023/11/04 06:30:24;;;;;;;3.05;1.27;;;3.40;99.90;;;;;;5004927;28;20022;-76
2023/11/04 06:32:50;;;;;;;3.30;0.80;;;3.40;99.90;;;;;;5004982;28;20034;-77
2023/11/04 06:35:16;;;;;;;1.85;0.93;;;3.40;99.90;;;;;;5005041;28;20065;-76
2023/11/04 06:37:41;;;;;;;2.17;0.90;;;3.30;99.90;;;;;;5004863;28;20073;-76
2023/11/04 06:40:09;;;;;;;3.15;1.27;;;3.20;99.90;;;;;;5004781;28;20689;-75
2023/11/04 06:42:35;;;;;;;2.10;0.70;;;3.30;99.90;;;;;;5005219;28;20092;-75
2023/11/04 06:45:02;;;;;;;2.47;1.10;;;3.20;99.90;;;;;;5004780;28;20049;-76
2023/11/04 06:47:28;;;;;;;1.70;0.80;;;3.20;99.90;;;;;;4999956;28;20041;-77
2023/11/04 06:49:53;;;;;;;7.68;1.17;;;3.30;99.90;;;;;;5002677;28;20068;-76
2023/11/04 06:52:19;;;;;;;3.05;1.05;;;3.50;99.90;;;;;;5000734;28;20463;-77
2023/11/04 06:54:45;;;;;;;3.25;1.20;;;3.50;99.90;;;;;;4986336;28;20173;-77
2023/11/04 06:57:10;;;;;;;1.85;1.08;;;3.60;99.90;;;;;;4988633;28;20034;-76
2023/11/04 06:59:40;;;;;;;3.03;1.30;;;3.60;99.90;;;;;;5000973;28;20029;-78
2023/11/04 07:02:07;;;;;;;3.17;1.42;;;3.70;99.90;;;;;;5000259;28;20044;-78
2023/11/04 07:04:33;;;;;;;2.97;1.20;;;3.70;99.90;;;;;;4989010;28;20506;-77
2023/11/04 07:06:58;;;;;;;3.67;1.20;;;3.70;99.90;;;;;;4990257;28;20034;-77
2023/11/04 07:09:24;;;;;;;2.17;0.88;;;4.10;99.90;;;;;;4989423;28;20030;-78
2023/11/04 07:11:50;;;;;;;3.25;1.02;;;3.90;99.90;;;;;;4992352;28;20022;-79
2023/11/04 07:14:16;;;;;;;1.92;0.70;;;4.00;99.90;;;;;;5007834;28;20040;-75
2023/11/04 07:16:42;;;;;;;2.95;1.30;;;3.80;99.90;;;;;;5000445;28;20481;-77
2023/11/04 07:19:09;;;;;;;2.92;1.20;;;3.90;99.90;;;;;;4989034;28;20038;-78
2023/11/04 07:21:37;;;;;;;2.78;1.15;;;3.80;99.90;;;;;;4971054;28;20516;-77
2023/11/04 07:24:03;;;;;;;1.85;0.90;;;4.00;99.90;;;;;;4988905;28;20551;-78
2023/11/04 07:26:29;;;;;;;2.58;1.30;;;3.90;99.90;;;;;;4989098;28;20030;-76
2023/11/04 07:28:56;;;;;;;3.78;1.40;;;4.00;99.90;;;;;;4988541;28;20508;-76
2023/11/04 07:31:22;;;;;;;3.38;1.35;;;4.10;99.90;;;;;;4995611;28;20042;-76
2023/11/04 07:33:48;;;;;;;4.28;1.45;;;4.10;99.90;;;;;;5017364;28;20037;-78
2023/11/04 07:36:22;;;;;;;2.95;1.40;;;4.00;99.90;;;;;;5007462;28;20084;-76
2023/11/04 07:38:48;;;;;;;6.20;2.30;;;4.20;99.90;;;;;;4989290;28;20134;-77
2023/11/04 07:41:14;;;;;;;3.63;1.58;;;4.60;99.90;;;;;;4996408;28;20117;-76
2023/11/04 07:43:40;;;;;;;2.90;1.38;;;4.60;99.90;;;;;;5005942;28;20504;-76
2023/11/04 07:46:06;;;;;;;3.65;1.50;;;4.40;99.90;;;;;;5008129;28;20030;-76
2023/11/04 07:48:32;;;;;;;3.10;1.60;;;4.20;99.90;;;;;;5008081;28;20081;-76
2023/11/04 07:50:57;;;;;;;3.35;1.55;;;4.20;99.90;;;;;;5008381;28;20449;-76
2023/11/04 07:53:23;;;;;;;3.20;1.20;;;4.10;99.90;;;;;;5008271;28;20022;-76
2023/11/04 07:55:49;;;;;;;2.55;1.27;;;4.20;99.90;;;;;;5008207;28;20037;-76
2023/11/04 07:58:16;;;;;;;2.97;1.45;;;4.20;99.90;;;;;;5008038;28;20038;-76
2023/11/04 08:00:43;;;;;;;2.10;0.85;;;4.20;99.90;;;;;;5008370;28;20026;-76
2023/11/04 08:03:09;;;;;;;3.25;1.30;;;4.20;99.90;;;;;;5008393;28;20065;-76
2023/11/04 08:05:36;;;;;;;1.83;0.80;;;4.20;99.90;;;;;;5008338;28;20057;-76
2023/11/04 08:08:03;;;;;;;2.28;0.93;;;4.10;99.90;;;;;;5008436;28;20830;-76
2023/11/04 08:10:29;;;;;;;2.95;1.20;;;4.20;99.90;;;;;;5008313;28;20064;-76
2023/11/04 08:12:54;;;;;;;4.40;1.20;;;4.20;99.90;;;;;;5007246;28;20061;-76
2023/11/04 08:15:20;;;;;;;3.58;1.17;;;4.20;99.90;;;;;;5008139;28;20037;-76
2023/11/04 08:17:45;;;;;;;3.65;1.48;;;4.30;99.90;;;;;;5008047;28;20065;-76
2023/11/04 08:20:11;;;;;;;2.45;1.00;;;4.50;99.90;;;;;;5007364;28;20520;-76
2023/11/04 08:22:39;;;;;;;3.47;1.17;;;4.50;99.90;;;;;;5007796;28;20847;-76
2023/11/04 08:25:09;;;;;;;3.00;1.25;;;4.60;99.90;;;;;;5007695;28;20030;-76
2023/11/04 08:27:35;;;;;;;2.28;0.98;;;4.50;99.90;;;;;;5007520;28;20026;-75
2023/11/04 08:30:02;;;;;;;2.10;0.80;;;4.50;99.90;;;;;;5007577;28;20095;-76
2023/11/04 08:32:28;;;;;;;1.77;1.00;;;4.50;99.90;;;;;;5007643;28;20025;-76
2023/11/04 08:34:56;;;;;;;1.88;0.77;;;4.70;99.90;;;;;;5011144;28;20038;-76
2023/11/04 08:37:22;;;;;;;2.45;1.23;;;4.80;99.90;;;;;;5011148;28;20022;-76
2023/11/04 08:39:48;;;;;;;3.10;1.30;;;4.80;99.90;;;;;;5010203;28;20030;-77
2023/11/04 08:42:13;;;;;;;3.65;1.52;;;4.90;99.90;;;;;;5011225;28;20034;-76
2023/11/04 08:44:39;;;;;;;3.95;1.20;;;4.80;99.90;;;;;;5010737;28;20765;-76
2023/11/04 08:47:05;;;;;;;2.40;1.10;;;4.80;99.90;;;;;;5011292;28;20528;-75
2023/11/04 08:49:30;;;;;;;4.65;1.45;;;4.80;99.90;;;;;;5011189;28;20499;-76
2023/11/04 08:51:58;;;;;;;2.70;1.10;;;4.90;99.90;;;;;;5010355;28;20037;-77
2023/11/04 08:54:24;;;;;;;2.95;1.20;;;5.00;99.90;;;;;;5011038;28;20088;-77
2023/11/04 08:56:51;;;;;;;3.70;1.50;;;5.10;99.90;;;;;;5010832;28;20627;-77
2023/11/04 08:59:18;;;;;;;2.70;1.27;;;5.00;99.90;;;;;;5010701;28;20123;-77
2023/11/04 09:01:43;;;;;;;2.72;1.02;;;5.20;99.90;;;;;;4992798;28;20503;-77
2023/11/04 09:04:11;;;;;;;3.92;1.33;;;5.10;99.90;;;;;;5009554;28;20117;-77
2023/11/04 09:06:37;;;;;;;4.55;1.50;;;5.10;99.90;;;;;;5007872;28;20025;-76
2023/11/04 09:09:06;;;;;;;3.55;1.40;;;5.20;99.90;;;;;;5007497;28;20025;-77
2023/11/04 09:11:32;;;;;;;3.88;1.20;;;5.20;99.90;;;;;;5008007;28;20041;-77
2023/11/04 09:13:57;;;;;;;2.88;1.10;;;5.30;99.90;;;;;;5009687;28;20034;-76
2023/11/04 09:16:23;;;;;;;2.75;1.27;;;5.30;99.90;;;;;;5010432;28;20037;-77
2023/11/04 09:18:49;;;;;;;3.15;1.38;;;5.30;99.90;;;;;;5010522;28;20037;-77
2023/11/04 09:21:14;;;;;;;2.75;1.35;;;5.40;99.90;;;;;;5009756;28;20038;-77
2023/11/04 09:23:40;;;;;;;2.63;1.17;;;5.50;99.90;;;;;;5009970;28;20077;-77
2023/11/04 09:26:06;;;;;;;2.47;1.20;;;5.60;99.90;;;;;;5010567;28;20071;-77
2023/11/04 09:28:32;;;;;;;2.95;1.40;;;5.70;99.90;;;;;;5010731;28;20029;-76
2023/11/04 09:30:58;;;;;;;4.13;1.10;;;5.80;99.90;;;;;;5010627;28;20033;-77
2023/11/04 09:33:23;;;;;;;5.03;1.70;;;5.90;99.90;;;;;;5010710;28;20933;-77
2023/11/04 09:35:49;;;;;;;3.47;1.30;;;5.90;99.90;;;;;;5010554;28;20040;-77
2023/11/04 09:38:15;;;;;;;3.65;1.40;;;5.90;99.90;;;;;;5010115;28;20036;-77
2023/11/04 09:40:41;;;;;;;3.22;1.13;;;6.00;99.90;;;;;;5009886;28;20458;-77
2023/11/04 09:43:07;;;;;;;3.35;1.48;;;6.20;99.90;;;;;;5010164;28;20108;-77
2023/11/04 09:45:33;;;;;;;4.13;1.70;;;6.30;99.90;;;;;;5010090;28;20506;-77
2023/11/04 09:47:59;;;;;;;4.45;1.80;;;6.30;99.90;;;;;;5010595;28;20026;-76
2023/11/04 09:50:26;;;;;;;3.47;1.50;;;6.40;99.90;;;;;;5007748;28;20077;-78
2023/11/04 09:52:58;;;;;;;2.58;1.20;;;6.30;99.90;;;;;;5005785;28;20136;-78
2023/11/04 09:55:26;;;;;;;4.90;1.55;;;6.20;99.90;;;;;;5007108;28;20030;-77
2023/11/04 09:57:56;;;;;;;2.83;1.40;;;6.20;99.90;;;;;;5008592;28;20080;-77
2023/11/04 10:00:23;;;;;;;4.13;1.20;;;6.20;99.90;;;;;;5009750;28;20042;-77
2023/11/04 10:02:49;;;;;;;3.20;1.52;;;6.30;99.90;;;;;;5006805;28;20538;-79
2023/11/04 10:05:15;;;;;;;3.45;1.23;;;6.40;99.90;;;;;;5007042;28;20034;-77
2023/11/04 10:07:41;;;;;;;4.45;1.38;;;6.40;99.90;;;;;;5008827;28;20164;-77
2023/11/04 10:10:10;;;;;;;2.65;1.33;;;6.60;99.90;;;;;;5009808;28;20073;-77
2023/11/04 10:12:38;;;;;;;3.05;1.55;;;6.70;99.90;;;;;;5009632;28;20034;-77
2023/11/04 10:15:06;;;;;;;4.75;1.50;;;6.80;99.90;;;;;;5009663;28;20080;-77
2023/11/04 10:17:32;;;;;;;3.58;1.40;;;6.80;99.90;;;;;;5009661;28;20030;-77
2023/11/04 10:19:58;;;;;;;3.40;1.65;;;6.80;99.90;;;;;;5009601;28;20037;-76
2023/11/04 10:22:24;;;;;;;3.80;1.30;;;6.70;99.90;;;;;;5009405;28;20026;-76
2023/11/04 10:24:50;;;;;;;3.75;1.40;;;6.80;99.90;;;;;;5010059;28;20364;-76
2023/11/04 10:27:16;;;;;;;4.25;1.65;;;6.80;99.90;;;;;;5009190;28;20025;-76
2023/11/04 10:29:42;;;;;;;5.20;1.38;;;7.00;99.90;;;;;;5009021;28;20058;-77
2023/11/04 10:32:11;;;;;;;3.10;1.30;;;7.20;99.90;;;;;;5009177;28;20480;-76
2023/11/04 10:34:44;;;;;;;3.03;1.38;;;7.30;99.90;;;;;;5009187;28;20034;-76
2023/11/04 10:37:12;;;;;;;3.88;1.55;;;7.30;99.90;;;;;;5008985;28;20125;-76
2023/11/04 10:39:41;;;;;;;3.03;1.60;;;7.30;99.90;;;;;;5009043;28;20049;-77
2023/11/04 10:42:15;;;;;;;3.10;1.50;;;7.30;99.90;;;;;;5008919;28;20034;-76
2023/11/04 10:44:47;;;;;;;2.93;1.30;;;7.50;99.90;;;;;;5008808;28;20034;-77
2023/11/04 10:47:43;;;;;;;2.35;1.30;;;7.60;99.90;;;;;;5009348;28;20033;-77
2023/11/04 10:50:14;;;;;;;3.60;1.73;;;7.60;99.90;;;;;;5009021;28;20049;-77
2023/11/04 10:53:10;;;;;;;4.40;1.52;;;7.60;99.90;;;;;;5007399;28;20349;-77
2023/11/04 10:56:17;;;;;;;6.82;2.00;;;7.80;99.90;;;;;;5004680;28;20030;-77
2023/11/04 10:59:04;;;;;;;4.68;1.77;;;8.00;99.90;;;;;;4985511;28;20050;-76
2023/11/04 11:01:31;;;;;;;4.55;1.70;;;8.10;99.90;;;;;;5005673;28;20062;-77
2023/11/04 11:03:58;;;;;;;4.13;1.80;;;8.30;99.90;;;;;;5005822;28;20104;-76
2023/11/04 11:06:26;;;;;;;3.05;1.50;;;8.10;99.90;;;;;;5005911;28;20072;-76
2023/11/04 11:08:52;;;;;;;3.08;1.40;;;8.10;99.90;;;;;;5005234;28;20049;-76
2023/11/04 11:11:48;;;;;;;3.38;1.63;;;8.10;99.90;;;;;;5005226;28;20030;-76
2023/11/04 11:14:15;;;;;;;4.07;1.27;;;8.20;99.90;;;;;;5000988;28;20132;-77
2023/11/04 11:16:41;;;;;;;2.80;1.52;;;8.20;99.90;;;;;;5005615;28;20026;-76
2023/11/04 11:19:11;;;;;;;3.60;1.50;;;8.30;99.90;;;;;;5005413;28;20044;-77
2023/11/04 11:21:49;;;;;;;4.18;1.55;;;8.30;99.90;;;;;;5004447;28;20030;-77
2023/11/04 11:24:20;;;;;;;3.60;1.80;;;8.40;99.90;;;;;;5004748;28;20042;-77
2023/11/04 11:26:50;;;;;;;4.80;1.52;;;8.60;99.90;;;;;;5005533;28;20030;-76
2023/11/04 11:29:23;;;;;;;3.42;1.30;;;8.60;99.90;;;;;;5005240;28;20037;-77
2023/11/04 11:31:51;;;;;;;4.35;1.60;;;8.60;99.90;;;;;;5005532;28;20061;-76
2023/11/04 11:34:20;;;;;;;3.28;1.50;;;8.70;99.90;;;;;;5006056;28;20435;-77
2023/11/04 11:36:49;;;;;;;2.65;1.30;;;8.60;99.90;;;;;;5006154;28;20606;-76
2023/11/04 11:39:15;;;;;;;3.40;1.58;;;8.70;99.90;;;;;;5005581;28;20046;-76
2023/11/04 11:41:44;;;;;;;4.05;1.75;;;8.80;99.90;;;;;;5008354;28;20490;-76
2023/11/04 11:44:15;;;;;;;3.38;1.40;;;8.80;99.90;;;;;;5008385;28;20447;-76
2023/11/04 11:46:43;;;;;;;2.83;1.45;;;8.90;99.90;;;;;;5008561;28;20037;-76
2023/11/04 11:49:09;;;;;;;4.82;1.27;;;8.90;99.90;;;;;;5008600;28;20675;-77
2023/11/04 11:51:38;;;;;;;4.40;1.58;;;8.90;99.90;;;;;;5007917;28;20061;-76
2023/11/04 11:54:04;;;;;;;2.35;1.20;;;8.90;99.90;;;;;;5007986;28;20041;-77
2023/11/04 11:56:30;;;;;;;4.30;1.55;;;8.70;99.90;;;;;;5008532;28;20025;-76
2023/11/04 11:59:02;;;;;;;2.88;1.27;;;8.80;99.90;;;;;;5007306;28;20038;-77
2023/11/04 12:01:28;;;;;;;4.20;1.25;;;8.80;99.90;;;;;;5005446;28;20029;-75
2023/11/04 12:03:54;;;;;;;2.72;1.17;;;8.80;99.90;;;;;;5007881;28;20022;-76
2023/11/04 12:06:20;;;;;;;5.00;1.60;;;8.90;99.90;;;;;;5007923;28;20037;-76
2023/11/04 12:08:48;;;;;;;2.78;1.40;;;9.00;99.90;;;;;;5011089;28;20033;-76
2023/11/04 12:11:14;;;;;;;3.72;1.50;;;9.00;99.90;;;;;;5011587;28;20068;-76
2023/11/04 12:13:40;;;;;;;3.38;1.33;;;9.00;99.90;;;;;;5011845;28;20451;-76
2023/11/04 12:16:08;;;;;;;3.70;1.23;;;9.00;99.90;;;;;;5011760;28;20454;-76
2023/11/04 12:18:34;;;;;;;2.20;1.23;;;9.10;99.90;;;;;;5011571;28;20030;-76
2023/11/04 12:20:59;;;;;;;4.28;1.38;;;9.20;99.90;;;;;;5012012;28;20033;-77
2023/11/04 12:23:29;;;;;;;2.72;1.20;;;9.20;99.90;;;;;;5011839;28;20036;-76
2023/11/04 12:25:56;;;;;;;2.95;1.27;;;9.20;99.90;;;;;;5011610;28;20081;-77
2023/11/04 12:28:22;;;;;;;2.72;1.23;;;9.10;99.90;;;;;;5011894;28;20105;-76
2023/11/04 12:31:01;;;;;;;2.80;1.40;;;9.10;99.90;;;;;;5010866;28;20425;-77
2023/11/04 12:33:28;;;;;;;3.60;1.70;;;9.10;99.90;;;;;;5011862;28;20105;-76
2023/11/04 12:36:01;;;;;;;5.38;2.75;;;9.30;99.90;;;;;;5011543;28;20048;-76
2023/11/04 12:38:27;;;;;;;9.10;6.73;;;9.20;99.90;;;;;;5011376;28;20057;-77
2023/11/04 12:40:53;;;;;;;7.13;3.55;;;9.20;99.90;;;;;;5011422;28;20037;-76
2023/11/04 12:43:22;;;;;;;8.77;4.35;;;9.30;99.90;;;;;;5011197;28;20033;-76
2023/11/04 12:45:47;;;;;;;7.45;4.22;;;9.20;99.90;;;;;;5011165;28;20045;-76
2023/11/04 12:48:15;;;;;;;5.13;2.10;;;9.40;99.90;;;;;;5011231;28;20026;-76
2023/11/04 12:50:40;;;;;;;3.83;2.22;;;9.50;99.90;;;;;;5004549;28;20076;-77
2023/11/04 12:53:07;;;;;;;3.78;1.77;;;9.60;99.90;;;;;;5010091;28;20443;-76
2023/11/04 12:55:33;;;;;;;4.30;1.90;;;9.50;99.90;;;;;;5010906;28;20034;-77